createdAt,value
2023-01-02T00:01:46.547Z,18.07
2023-01-02T00:04:15.840Z,21.37
2023-01-02T00:06:44.156Z,17.30
2023-01-02T00:09:13.497Z,19.03
2023-01-02T00:11:42.412Z,16.50
2023-01-02T00:14:12.171Z,19.70
2023-01-02T00:16:41.369Z,21.57
2023-01-02T00:19:09.716Z,26.33
2023-01-02T00:21:38.913Z,20.93
2023-01-02T00:24:08.439Z,22.07
2023-01-02T00:26:36.870Z,20.17
2023-01-02T00:29:06.148Z,19.20
2023-01-02T00:31:36.002Z,18.03
2023-01-02T00:34:05.362Z,23.10
2023-01-02T00:36:34.279Z,24.83
2023-01-02T00:39:03.287Z,25.30
2023-01-02T00:41:31.619Z,22.13
2023-01-02T00:44:00.767Z,23.93
2023-01-02T00:46:29.089Z,21.70
2023-01-02T00:48:59.622Z,22.90
2023-01-02T00:51:28.400Z,22.47
2023-01-02T00:53:56.784Z,23.70
2023-01-02T00:56:25.718Z,22.67
2023-01-02T00:58:54.083Z,19.60
2023-01-02T01:01:23.347Z,20.30
2023-01-02T01:03:51.956Z,19.73
2023-01-02T01:06:22.940Z,21.03
2023-01-02T01:08:51.681Z,21.27
2023-01-02T01:11:20.463Z,22.70
2023-01-02T01:13:49.314Z,21.10
2023-01-02T01:16:20.036Z,18.13
2023-01-02T01:18:50.037Z,19.07
2023-01-02T01:21:20.545Z,23.57
2023-01-02T01:23:53.394Z,18.50
2023-01-02T01:26:23.129Z,18.97
2023-01-02T01:28:53.639Z,22.53
2023-01-02T01:31:22.726Z,21.47
2023-01-02T01:33:52.032Z,20.17
2023-01-02T01:36:22.352Z,22.07
2023-01-02T01:38:52.862Z,21.13
2023-01-02T01:41:23.203Z,21.53
2023-01-02T01:43:53.586Z,20.07
2023-01-02T01:46:28.032Z,20.37
2023-01-02T01:49:03.284Z,22.20
2023-01-02T01:51:37.089Z,19.03
2023-01-02T01:54:10.367Z,18.27
2023-01-02T01:56:44.217Z,16.80
2023-01-02T01:59:13.574Z,18.57
2023-01-02T02:01:43.856Z,20.90
2023-01-02T02:04:14.954Z,21.10
2023-01-02T02:06:44.635Z,19.77
2023-01-02T02:09:20.024Z,20.17
2023-01-02T02:11:51.083Z,16.63
2023-01-02T02:14:19.438Z,14.70
2023-01-02T02:16:54.866Z,16.10
2023-01-02T02:20:06.172Z,18.67
2023-01-02T02:23:17.614Z,18.07
2023-01-02T02:25:59.733Z,16.47
2023-01-02T02:28:56.253Z,18.33
2023-01-02T02:31:34.643Z,20.10
2023-01-02T02:34:14.612Z,19.33
2023-01-02T02:36:51.597Z,17.93
2023-01-02T02:39:27.630Z,21.43
2023-01-02T02:42:00.951Z,19.37
2023-01-02T02:44:43.275Z,19.03
2023-01-02T02:47:20.869Z,19.30
2023-01-02T02:49:58.202Z,18.23
2023-01-02T02:52:31.715Z,18.67
2023-01-02T02:55:06.293Z,19.13
2023-01-02T02:57:36.074Z,17.50
2023-01-02T03:00:06.866Z,17.43
2023-01-02T03:02:37.791Z,19.60
2023-01-02T03:05:11.621Z,17.10
2023-01-02T03:07:43.016Z,18.17
2023-01-02T03:10:22.648Z,18.20
2023-01-02T03:12:59.781Z,18.33
2023-01-02T03:15:36.437Z,16.43
2023-01-02T03:18:17.160Z,14.43
2023-01-02T03:20:49.668Z,15.47
2023-01-02T03:23:22.338Z,17.37
2023-01-02T03:25:52.518Z,17.63
2023-01-02T03:28:24.880Z,17.40
2023-01-02T03:30:57.342Z,17.17
2023-01-02T03:33:30.949Z,17.93
2023-01-02T03:36:03.333Z,24.40
2023-01-02T03:38:37.727Z,14.87
2023-01-02T03:41:08.963Z,14.40
2023-01-02T03:43:41.292Z,16.43
2023-01-02T03:46:16.763Z,14.40
2023-01-02T03:48:53.281Z,13.30
2023-01-02T03:51:21.711Z,16.67
2023-01-02T03:53:53.353Z,18.37
2023-01-02T03:56:27.228Z,20.40
2023-01-02T03:58:59.867Z,21.03
2023-01-02T04:01:36.030Z,18.93
2023-01-02T04:04:12.528Z,26.73
2023-01-02T04:06:47.760Z,21.67
2023-01-02T04:09:20.402Z,19.47
2023-01-02T04:11:53.614Z,16.77
2023-01-02T04:14:30.716Z,22.87
2023-01-02T04:17:02.286Z,20.03
2023-01-02T04:19:36.836Z,18.67
2023-01-02T04:22:09.740Z,22.00
2023-01-02T04:24:43.596Z,26.13
2023-01-02T04:27:18.635Z,25.53
2023-01-02T04:29:47.539Z,23.63
2023-01-02T04:32:20.242Z,19.90
2023-01-02T04:34:52.773Z,21.77
2023-01-02T04:37:33.184Z,17.30
2023-01-02T04:40:07.082Z,18.50
2023-01-02T04:42:36.502Z,18.80
2023-01-02T04:45:05.610Z,17.17
2023-01-02T04:47:34.432Z,14.70
2023-01-02T04:50:04.120Z,16.50
2023-01-02T04:52:37.001Z,16.70
2023-01-02T04:55:08.277Z,18.60
2023-01-02T04:57:37.287Z,22.60
2023-01-02T05:00:08.647Z,20.10
2023-01-02T05:02:37.377Z,20.03
2023-01-02T05:05:10.200Z,16.07
2023-01-02T05:07:39.071Z,21.50
2023-01-02T05:10:10.439Z,18.77
2023-01-02T05:12:40.152Z,17.57
2023-01-02T05:15:11.341Z,17.77
2023-01-02T05:17:42.436Z,23.33
2023-01-02T05:20:14.393Z,18.23
2023-01-02T05:23:01.698Z,16.50
2023-01-02T05:25:34.612Z,16.83
2023-01-02T05:28:04.026Z,19.30
2023-01-02T05:30:32.887Z,17.73
2023-01-02T05:33:01.271Z,20.30
2023-01-02T05:35:33.342Z,17.00
2023-01-02T05:38:02.657Z,17.00
2023-01-02T05:40:31.022Z,16.93
2023-01-02T05:42:59.649Z,16.93
2023-01-02T05:45:29.038Z,15.83
2023-01-02T05:47:57.370Z,17.80
2023-01-02T05:50:26.130Z,16.43
2023-01-02T05:52:56.345Z,17.13
2023-01-02T05:55:25.214Z,15.53
2023-01-02T05:57:56.340Z,18.03
2023-01-02T06:00:24.669Z,16.00
2023-01-02T06:02:55.215Z,19.07
2023-01-02T06:05:23.661Z,14.00
2023-01-02T06:07:52.655Z,14.63
2023-01-02T06:10:22.822Z,14.87
2023-01-02T06:12:51.170Z,15.50
2023-01-02T06:15:20.210Z,18.83
2023-01-02T06:17:49.189Z,17.93
2023-01-02T06:20:18.503Z,21.43
2023-01-02T06:22:46.830Z,21.30
2023-01-02T06:25:16.335Z,15.83
2023-01-02T06:27:46.011Z,18.73
2023-01-02T06:30:15.486Z,19.57
2023-01-02T06:32:43.841Z,17.17
2023-01-02T06:35:12.737Z,15.90
2023-01-02T06:37:43.967Z,16.67
2023-01-02T06:40:13.264Z,16.80
2023-01-02T06:42:43.738Z,19.13
2023-01-02T06:45:14.671Z,15.00
2023-01-02T06:47:43.102Z,16.40
2023-01-02T06:50:12.397Z,17.27
2023-01-02T06:52:40.822Z,14.27
2023-01-02T06:55:10.363Z,17.03
2023-01-02T06:57:38.778Z,14.50
2023-01-02T07:00:09.134Z,25.00
2023-01-02T07:02:38.975Z,19.97
2023-01-02T07:05:08.232Z,16.10
2023-01-02T07:07:37.448Z,16.07
2023-01-02T07:10:06.959Z,19.20
2023-01-02T07:12:37.449Z,19.77
2023-01-02T07:15:07.690Z,19.90
2023-01-02T07:17:36.058Z,20.57
2023-01-02T07:20:08.003Z,21.70
2023-01-02T07:22:36.302Z,19.57
2023-01-02T07:25:05.968Z,22.50
2023-01-02T07:27:34.512Z,17.93
2023-01-02T07:30:03.525Z,16.83
2023-01-02T07:32:31.901Z,18.83
2023-01-02T07:35:00.561Z,18.23
2023-01-02T07:37:30.569Z,17.80
2023-01-02T07:39:58.942Z,16.37
2023-01-02T07:42:27.289Z,21.73
2023-01-02T07:44:55.638Z,15.13
2023-01-02T07:47:24.499Z,16.93
2023-01-02T07:49:52.847Z,20.37
2023-01-02T07:52:22.097Z,16.57
2023-01-02T07:54:53.159Z,15.60
2023-01-02T07:57:22.000Z,17.00
2023-01-02T07:59:53.074Z,19.43
2023-01-02T08:02:21.590Z,18.40
2023-01-02T08:04:50.993Z,20.03
2023-01-02T08:07:19.969Z,17.67
2023-01-02T08:09:48.816Z,18.03
2023-01-02T08:12:18.524Z,18.03
2023-01-02T08:14:47.541Z,18.97
2023-01-02T08:17:15.949Z,19.83
2023-01-02T08:19:44.272Z,21.30
2023-01-02T08:22:12.664Z,18.90
2023-01-02T08:24:41.347Z,22.50
2023-01-02T08:27:09.728Z,21.50
2023-01-02T08:29:40.296Z,21.37
2023-01-02T08:32:09.316Z,19.37
2023-01-02T08:34:38.561Z,17.23
2023-01-02T08:37:06.996Z,20.60
2023-01-02T08:39:35.930Z,19.03
2023-01-02T08:42:05.217Z,16.33
2023-01-02T08:44:38.101Z,21.00
2023-01-02T08:47:07.918Z,18.67
2023-01-02T08:49:36.272Z,19.00
2023-01-02T08:52:05.324Z,24.13
2023-01-02T08:54:34.078Z,24.03
2023-01-02T08:57:03.260Z,23.43
2023-01-02T08:59:31.693Z,23.20
2023-01-02T09:02:01.114Z,23.40
2023-01-02T09:04:30.946Z,24.53
2023-01-02T09:07:00.190Z,25.47
2023-01-02T09:09:28.572Z,47.77
2023-01-02T09:11:58.147Z,33.80
2023-01-02T09:14:27.222Z,45.53
2023-01-02T09:16:58.276Z,31.57
2023-01-02T09:19:27.095Z,39.77
2023-01-02T09:21:57.640Z,42.13
2023-01-02T09:24:26.035Z,34.73
2023-01-02T09:26:55.957Z,26.23
2023-01-02T09:29:24.427Z,25.57
2023-01-02T09:31:53.839Z,18.10
2023-01-02T09:34:22.215Z,22.45
2023-01-02T09:36:51.110Z,35.30
2023-01-02T09:39:20.868Z,36.80
2023-01-02T09:41:53.422Z,37.08
2023-01-02T09:44:27.014Z,26.30
2023-01-02T09:47:01.192Z,17.08
2023-01-02T09:49:32.226Z,18.07
2023-01-02T09:52:01.368Z,21.43
2023-01-02T09:54:32.943Z,18.13
2023-01-02T09:57:20.788Z,18.85
2023-01-02T09:59:55.530Z,18.88
2023-01-02T10:02:41.984Z,11.90
2023-01-02T10:05:38.952Z,15.35
2023-01-02T10:08:15.504Z,16.55
2023-01-02T10:10:50.526Z,11.88
2023-01-02T10:13:59.837Z,12.55
2023-01-02T10:16:20.809Z,9.95
2023-01-02T10:18:53.413Z,11.65
2023-01-02T10:21:25.854Z,12.35
2023-01-02T10:24:02.018Z,13.25
2023-01-02T10:26:36.505Z,13.73
2023-01-02T10:29:13.495Z,12.48
2023-01-02T10:31:45.584Z,13.70
2023-01-02T10:34:17.543Z,14.60
2023-01-02T10:36:47.443Z,15.77
2023-01-02T10:39:18.979Z,13.48
2023-01-02T10:41:51.895Z,15.35
2023-01-02T10:44:26.593Z,15.70
2023-01-02T10:46:56.576Z,11.32
2023-01-02T10:49:27.922Z,12.73
2023-01-02T10:52:04.548Z,11.27
2023-01-02T10:54:55.026Z,10.63
2023-01-02T10:57:39.426Z,12.52
2023-01-02T11:00:28.377Z,12.77
2023-01-02T11:02:59.348Z,14.63
2023-01-02T11:05:30.661Z,12.43
2023-01-02T11:07:59.924Z,12.38
2023-01-02T11:10:30.885Z,12.45
2023-01-02T11:13:04.836Z,12.82
2023-01-02T11:15:34.951Z,12.77
2023-01-02T11:18:12.313Z,14.38
2023-01-02T11:20:41.528Z,12.82
2023-01-02T11:23:14.787Z,14.25
2023-01-02T11:25:45.091Z,12.50
2023-01-02T11:28:19.532Z,13.85
2023-01-02T11:30:51.069Z,15.43
2023-01-02T11:33:27.097Z,13.75
2023-01-02T11:35:58.021Z,13.50
2023-01-02T11:38:30.799Z,13.82
2023-01-02T11:41:02.132Z,15.10
2023-01-02T11:43:49.362Z,13.13
2023-01-02T11:46:34.870Z,11.52
2023-01-02T11:49:06.599Z,12.65
2023-01-02T11:51:38.142Z,14.52
2023-01-02T11:54:14.135Z,13.05
2023-01-02T11:56:46.065Z,13.40
2023-01-02T11:59:20.657Z,14.75
2023-01-02T12:01:56.884Z,12.82
2023-01-02T12:04:25.662Z,12.18
2023-01-02T12:07:08.337Z,11.40
2023-01-02T12:09:46.560Z,10.50
2023-01-02T12:12:30.422Z,11.57
2023-01-02T12:15:31.541Z,9.57
2023-01-02T12:18:09.043Z,11.23
2023-01-02T12:20:45.379Z,10.23
2023-01-02T12:23:56.317Z,11.52
2023-01-02T12:26:32.681Z,8.93
2023-01-02T12:29:46.111Z,9.52
2023-01-02T12:32:41.383Z,11.20
2023-01-02T12:35:25.329Z,11.68
2023-01-02T12:37:56.663Z,13.25
2023-01-02T12:40:44.823Z,15.05
2023-01-02T12:43:28.490Z,10.73
2023-01-02T12:46:07.687Z,10.07
2023-01-02T12:48:53.588Z,9.95
2023-01-02T12:51:27.370Z,11.02
2023-01-02T12:54:19.205Z,9.50
2023-01-02T12:57:00.169Z,15.57
2023-01-02T12:59:51.690Z,12.35
2023-01-02T13:02:38.457Z,13.98
2023-01-02T13:05:13.532Z,11.77
2023-01-02T13:07:47.967Z,10.95
2023-01-02T13:10:20.188Z,10.60
2023-01-02T13:12:50.790Z,12.50
2023-01-02T13:15:22.982Z,11.52
2023-01-02T13:18:02.805Z,11.10
2023-01-02T13:20:44.061Z,10.55
2023-01-02T13:23:33.877Z,11.32
2023-01-02T13:26:06.760Z,11.75
2023-01-02T13:28:42.824Z,13.00
2023-01-02T13:31:45.567Z,16.23
2023-01-02T13:34:08.852Z,13.55
2023-01-02T13:36:42.160Z,14.05
2023-01-02T13:39:20.675Z,15.25
2023-01-02T13:42:10.749Z,14.05
2023-01-02T13:44:43.202Z,15.75
2023-01-02T13:47:25.840Z,12.52
2023-01-02T13:50:05.685Z,12.85
2023-01-02T13:52:35.696Z,12.10
2023-01-02T13:55:31.748Z,16.67
2023-01-02T13:58:26.503Z,10.45
2023-01-02T14:00:57.168Z,14.43
2023-01-02T14:03:38.748Z,11.27
2023-01-02T14:06:29.458Z,10.82
2023-01-02T14:09:13.624Z,10.10
2023-01-02T14:11:56.801Z,11.38
2023-01-02T14:14:34.682Z,11.85
2023-01-02T14:17:17.167Z,10.63
2023-01-02T14:19:46.283Z,13.68
2023-01-02T14:22:17.048Z,13.23
2023-01-02T14:24:49.214Z,10.88
2023-01-02T14:27:23.735Z,11.48
2023-01-02T14:29:55.041Z,13.75
2023-01-02T14:32:28.931Z,11.05
2023-01-02T14:34:59.309Z,10.70
2023-01-02T14:37:33.938Z,11.35
2023-01-02T14:40:19.625Z,11.18
2023-01-02T14:43:13.145Z,11.00
2023-01-02T14:45:44.909Z,12.52
2023-01-02T14:48:18.279Z,10.57
2023-01-02T14:50:50.148Z,11.32
2023-01-02T14:53:22.855Z,11.82
2023-01-02T14:55:57.024Z,10.65
2023-01-02T14:58:38.517Z,9.48
2023-01-02T15:01:08.112Z,9.63
2023-01-02T15:03:47.192Z,10.60
2023-01-02T15:06:24.280Z,10.48
2023-01-02T15:08:57.703Z,9.70
2023-01-02T15:11:45.489Z,11.45
2023-01-02T15:14:20.505Z,12.55
2023-01-02T15:16:57.343Z,11.80
2023-01-02T15:19:29.526Z,9.95
2023-01-02T15:21:58.590Z,10.20
2023-01-02T15:24:30.302Z,9.88
2023-01-02T15:27:16.166Z,8.70
2023-01-02T15:29:49.859Z,10.30
2023-01-02T15:32:21.875Z,10.48
2023-01-02T15:34:51.242Z,11.18
2023-01-02T15:37:22.818Z,11.13
2023-01-02T15:39:53.817Z,31.50
2023-01-02T15:42:44.320Z,32.13
2023-01-02T15:45:15.354Z,12.90
2023-01-02T15:47:48.083Z,13.93
2023-01-02T15:50:20.317Z,10.20
2023-01-02T15:52:54.641Z,12.00
2023-01-02T15:55:23.229Z,12.38
2023-01-02T15:57:56.158Z,12.30
2023-01-02T16:00:36.822Z,9.88
2023-01-02T16:03:06.683Z,12.05
2023-01-02T16:05:47.915Z,9.70
2023-01-02T16:08:21.375Z,11.48
2023-01-02T16:11:00.992Z,14.23
2023-01-02T16:13:51.024Z,13.65
2023-01-02T16:16:21.277Z,12.82
2023-01-02T16:18:53.841Z,15.75
2023-01-02T16:21:22.638Z,13.48
2023-01-02T16:23:55.807Z,14.77
2023-01-02T16:26:30.752Z,12.18
2023-01-02T16:29:00.846Z,11.77
2023-01-02T16:31:29.301Z,13.45
2023-01-02T16:34:14.307Z,15.55
2023-01-02T16:36:43.236Z,16.65
2023-01-02T16:39:45.842Z,20.75
2023-01-02T16:42:32.056Z,13.73
2023-01-02T16:45:00.841Z,14.18
2023-01-02T16:47:37.134Z,13.07
2023-01-02T16:50:17.014Z,14.90
2023-01-02T16:52:46.100Z,12.88
2023-01-02T16:55:18.685Z,11.20
2023-01-02T16:57:47.825Z,13.25
2023-01-02T17:00:18.295Z,11.35
2023-01-02T17:02:47.658Z,11.07
2023-01-02T17:05:22.202Z,13.18
2023-01-02T17:07:50.599Z,11.57
2023-01-02T17:10:21.436Z,12.70
2023-01-02T17:12:50.124Z,9.55
2023-01-02T17:15:19.169Z,9.63
2023-01-02T17:17:47.776Z,11.98
2023-01-02T17:20:16.849Z,11.93
2023-01-02T17:22:45.326Z,10.00
2023-01-02T17:25:16.040Z,10.25
2023-01-02T17:27:46.123Z,8.73
2023-01-02T17:30:16.057Z,14.38
2023-01-02T17:32:45.119Z,11.90
2023-01-02T17:35:14.386Z,12.85
2023-01-02T17:37:43.970Z,18.00
2023-01-02T17:40:14.037Z,10.93
2023-01-02T17:42:45.093Z,11.70
2023-01-02T17:45:14.461Z,13.07
2023-01-02T17:48:04.036Z,10.07
2023-01-02T17:50:33.209Z,9.50
2023-01-02T17:53:01.933Z,8.70
2023-01-02T17:55:30.303Z,9.27
2023-01-02T17:58:01.188Z,11.70
2023-01-02T18:00:30.332Z,13.70
2023-01-02T18:02:59.171Z,10.95
2023-01-02T18:05:27.623Z,11.35
2023-01-02T18:07:56.491Z,12.57
2023-01-02T18:10:32.627Z,18.02
2023-01-02T18:13:03.534Z,15.20
2023-01-02T18:15:31.994Z,9.98
2023-01-02T18:18:09.432Z,10.27
2023-01-02T18:20:40.985Z,9.88
2023-01-02T18:23:13.456Z,8.60
2023-01-02T18:25:42.627Z,7.15
2023-01-02T18:28:21.893Z,8.27
2023-01-02T18:30:56.794Z,7.00
2023-01-02T18:33:26.670Z,8.23
2023-01-02T18:36:02.404Z,7.43
2023-01-02T18:38:33.722Z,9.68
2023-01-02T18:41:11.522Z,12.32
2023-01-02T18:43:42.600Z,10.60
2023-01-02T18:46:15.471Z,10.00
2023-01-02T18:48:44.646Z,10.35
2023-01-02T18:51:17.917Z,9.57
2023-01-02T18:53:50.109Z,8.95
2023-01-02T18:56:22.673Z,11.93
2023-01-02T18:59:00.736Z,8.05
2023-01-02T19:01:31.479Z,9.70
2023-01-02T19:04:28.140Z,7.60
2023-01-02T19:07:00.718Z,8.60
2023-01-02T19:09:32.503Z,8.43
2023-01-02T19:12:24.819Z,10.70
2023-01-02T19:14:55.763Z,8.27
2023-01-02T19:17:27.214Z,7.97
2023-01-02T19:19:57.034Z,10.85
2023-01-02T19:22:30.666Z,10.82
2023-01-02T19:25:05.390Z,6.43
2023-01-02T19:27:37.989Z,8.13
2023-01-02T19:30:29.012Z,5.38
2023-01-02T19:32:57.825Z,7.60
2023-01-02T19:35:56.671Z,7.15
2023-01-02T19:38:28.140Z,6.80
2023-01-02T19:40:57.178Z,7.32
2023-01-02T19:43:25.759Z,9.70
2023-01-02T19:45:56.271Z,8.00
2023-01-02T19:48:24.954Z,10.13
2023-01-02T19:50:53.574Z,5.32
2023-01-02T19:53:22.624Z,11.45
2023-01-02T19:55:52.298Z,7.13
2023-01-02T19:58:20.837Z,10.23
2023-01-02T20:00:50.323Z,11.38
2023-01-02T20:03:20.152Z,10.30
2023-01-02T20:05:49.497Z,10.90
2023-01-02T20:08:18.427Z,8.43
2023-01-02T20:10:47.172Z,8.32
2023-01-02T20:13:15.486Z,9.13
2023-01-02T20:15:45.127Z,9.80
2023-01-02T20:18:17.943Z,8.00
2023-01-02T20:20:48.805Z,10.27
2023-01-02T20:23:18.688Z,10.57
2023-01-02T20:25:48.627Z,7.80
2023-01-02T20:28:18.152Z,9.15
2023-01-02T20:30:47.903Z,6.82
2023-01-02T20:33:17.328Z,6.43
2023-01-02T20:35:45.697Z,7.70
2023-01-02T20:38:15.693Z,8.33
2023-01-02T20:40:44.356Z,9.43
2023-01-02T20:43:13.552Z,7.10
2023-01-02T20:45:42.014Z,10.10
2023-01-02T20:48:11.676Z,8.00
2023-01-02T20:50:40.957Z,7.60
2023-01-02T20:53:09.658Z,9.13
2023-01-02T20:55:40.534Z,8.32
2023-01-02T20:58:08.993Z,8.70
2023-01-02T21:00:40.961Z,6.82
2023-01-02T21:03:09.661Z,12.75
2023-01-02T21:05:39.379Z,10.05
2023-01-02T21:08:08.381Z,7.57
2023-01-02T21:10:36.982Z,7.78
2023-01-02T21:13:10.697Z,12.07
2023-01-02T21:15:50.463Z,9.70
2023-01-02T21:18:21.365Z,10.50
2023-01-02T21:20:51.776Z,9.57
2023-01-02T21:23:21.951Z,7.57
2023-01-02T21:25:51.146Z,9.07
2023-01-02T21:28:22.931Z,12.32
2023-01-02T21:30:52.470Z,9.20
2023-01-02T21:33:23.830Z,8.98
2023-01-02T21:35:54.898Z,11.77
2023-01-02T21:38:24.487Z,13.93
2023-01-02T21:40:53.912Z,8.82
2023-01-02T21:43:24.666Z,10.73
2023-01-02T21:45:54.118Z,10.52
2023-01-02T21:48:22.465Z,9.95
2023-01-02T21:50:50.843Z,8.25
2023-01-02T21:53:19.779Z,7.72
2023-01-02T21:55:48.239Z,8.02
2023-01-02T21:58:17.673Z,7.30
2023-01-02T22:00:48.636Z,7.85
2023-01-02T22:03:17.616Z,8.57
2023-01-02T22:05:46.612Z,7.38
2023-01-02T22:08:15.530Z,10.70
2023-01-02T22:10:44.111Z,10.00
2023-01-02T22:13:13.206Z,12.38
2023-01-02T22:15:41.976Z,11.70
2023-01-02T22:18:12.149Z,7.40
2023-01-02T22:20:40.502Z,10.50
2023-01-02T22:23:08.822Z,8.40
2023-01-02T22:25:38.188Z,12.05
2023-01-02T22:28:06.705Z,10.30
2023-01-02T22:30:35.666Z,11.45
2023-01-02T22:33:04.527Z,9.88
2023-01-02T22:35:35.559Z,6.85
2023-01-02T22:38:04.258Z,11.20
2023-01-02T22:40:32.702Z,9.13
2023-01-02T22:43:04.918Z,9.55
2023-01-02T22:45:42.422Z,7.25
2023-01-02T22:48:18.696Z,9.82
2023-01-02T22:50:49.919Z,8.75
2023-01-02T22:53:22.464Z,8.43
2023-01-02T22:55:51.326Z,9.60
2023-01-02T22:58:21.696Z,10.43
2023-01-02T23:00:55.145Z,11.60
2023-01-02T23:03:24.514Z,10.25
2023-01-02T23:05:54.202Z,6.45
2023-01-02T23:08:22.573Z,11.10
2023-01-02T23:10:51.819Z,8.35
2023-01-02T23:13:20.207Z,9.85
2023-01-02T23:16:07.406Z,14.90
2023-01-02T23:18:56.621Z,14.85
2023-01-02T23:21:29.437Z,18.77
2023-01-02T23:23:58.293Z,17.02
2023-01-02T23:26:29.807Z,12.10
2023-01-02T23:29:07.751Z,10.68
2023-01-02T23:31:38.769Z,11.98
2023-01-02T23:34:08.540Z,9.88
2023-01-02T23:36:39.043Z,8.18
2023-01-02T23:39:12.065Z,10.88
2023-01-02T23:41:41.319Z,6.47
2023-01-02T23:44:11.609Z,8.27
2023-01-02T23:46:41.427Z,11.07
2023-01-02T23:49:11.449Z,9.50
2023-01-02T23:51:42.649Z,7.22
2023-01-02T23:54:13.885Z,8.07
2023-01-02T23:56:45.586Z,6.75
2023-01-02T23:59:15.951Z,8.32
